sensor_id;sensor_type;location;lat;lon;timestamp;P1;durP1;ratioP1;P2;durP2;ratioP2
4766;SDS011;2397;53.576;9.746;2023-07-08T00:01:18;7.13;;;5.10;;
4766;SDS011;2397;53.576;9.746;2023-07-08T00:03:45;5.83;;;5.33;;
4766;SDS011;2397;53.576;9.746;2023-07-08T00:06:15;5.87;;;4.93;;
4766;SDS011;2397;53.576;9.746;2023-07-08T00:08:44;5.10;;;4.60;;
4766;SDS011;2397;53.576;9.746;2023-07-08T00:11:11;6.03;;;4.67;;
4766;SDS011;2397;53.576;9.746;2023-07-08T00:13:38;5.70;;;4.87;;
4766;SDS011;2397;53.576;9.746;2023-07-08T00:16:08;5.43;;;5.03;;
4766;SDS011;2397;53.576;9.746;2023-07-08T00:18:37;6.70;;;4.80;;
4766;SDS011;2397;53.576;9.746;2023-07-08T00:21:04;8.07;;;4.80;;
4766;SDS011;2397;53.576;9.746;2023-07-08T00:23:35;6.53;;;5.03;;
4766;SDS011;2397;53.576;9.746;2023-07-08T00:26:04;6.27;;;4.80;;
4766;SDS011;2397;53.576;9.746;2023-07-08T00:28:36;8.13;;;5.70;;
4766;SDS011;2397;53.576;9.746;2023-07-08T00:31:04;5.93;;;5.07;;
4766;SDS011;2397;53.576;9.746;2023-07-08T00:33:35;6.37;;;4.50;;
4766;SDS011;2397;53.576;9.746;2023-07-08T00:36:05;7.90;;;5.40;;
4766;SDS011;2397;53.576;9.746;2023-07-08T00:38:37;5.60;;;5.10;;
4766;SDS011;2397;53.576;9.746;2023-07-08T00:41:11;5.87;;;5.23;;
4766;SDS011;2397;53.576;9.746;2023-07-08T00:43:56;7.33;;;5.23;;
4766;SDS011;2397;53.576;9.746;2023-07-08T00:51:55;5.30;;;4.80;;
4766;SDS011;2397;53.576;9.746;2023-07-08T00:54:21;5.73;;;5.10;;
4766;SDS011;2397;53.576;9.746;2023-07-08T00:56:52;5.10;;;4.70;;
4766;SDS011;2397;53.576;9.746;2023-07-08T00:59:26;6.13;;;5.20;;
4766;SDS011;2397;53.576;9.746;2023-07-08T01:02:05;8.53;;;5.40;;
4766;SDS011;2397;53.576;9.746;2023-07-08T01:07:17;5.83;;;5.33;;
4766;SDS011;2397;53.576;9.746;2023-07-08T01:09:48;5.47;;;4.97;;
4766;SDS011;2397;53.576;9.746;2023-07-08T01:12:20;5.80;;;4.93;;
4766;SDS011;2397;53.576;9.746;2023-07-08T01:14:53;7.70;;;5.30;;
4766;SDS011;2397;53.576;9.746;2023-07-08T01:17:21;7.60;;;5.10;;
4766;SDS011;2397;53.576;9.746;2023-07-08T01:19:49;6.40;;;4.70;;
4766;SDS011;2397;53.576;9.746;2023-07-08T01:22:17;5.27;;;4.87;;
4766;SDS011;2397;53.576;9.746;2023-07-08T01:24:44;6.70;;;5.50;;
4766;SDS011;2397;53.576;9.746;2023-07-08T01:27:13;6.03;;;5.57;;
4766;SDS011;2397;53.576;9.746;2023-07-08T01:29:43;5.97;;;5.30;;
4766;SDS011;2397;53.576;9.746;2023-07-08T01:32:12;7.90;;;6.27;;
4766;SDS011;2397;53.576;9.746;2023-07-08T01:34:45;5.83;;;5.33;;
4766;SDS011;2397;53.576;9.746;2023-07-08T01:37:36;5.87;;;5.33;;
4766;SDS011;2397;53.576;9.746;2023-07-08T01:42:41;5.83;;;5.30;;
4766;SDS011;2397;53.576;9.746;2023-07-08T01:45:10;7.07;;;5.33;;
4766;SDS011;2397;53.576;9.746;2023-07-08T01:47:39;5.60;;;5.10;;
4766;SDS011;2397;53.576;9.746;2023-07-08T01:50:09;6.10;;;5.30;;
4766;SDS011;2397;53.576;9.746;2023-07-08T01:52:37;8.50;;;5.63;;
4766;SDS011;2397;53.576;9.746;2023-07-08T01:55:03;6.53;;;5.93;;
4766;SDS011;2397;53.576;9.746;2023-07-08T01:57:31;5.70;;;5.20;;
4766;SDS011;2397;53.576;9.746;2023-07-08T01:59:58;7.13;;;5.97;;
4766;SDS011;2397;53.576;9.746;2023-07-08T02:02:25;5.13;;;4.57;;
4766;SDS011;2397;53.576;9.746;2023-07-08T02:04:51;5.83;;;5.30;;
4766;SDS011;2397;53.576;9.746;2023-07-08T02:07:18;7.97;;;6.13;;
4766;SDS011;2397;53.576;9.746;2023-07-08T02:09:44;7.43;;;5.83;;
4766;SDS011;2397;53.576;9.746;2023-07-08T02:12:11;6.57;;;5.70;;
4766;SDS011;2397;53.576;9.746;2023-07-08T02:14:38;8.40;;;5.40;;
4766;SDS011;2397;53.576;9.746;2023-07-08T02:17:05;6.90;;;5.50;;
4766;SDS011;2397;53.576;9.746;2023-07-08T02:19:32;7.33;;;5.70;;
4766;SDS011;2397;53.576;9.746;2023-07-08T02:21:58;6.93;;;5.27;;
4766;SDS011;2397;53.576;9.746;2023-07-08T02:24:25;5.87;;;5.27;;
4766;SDS011;2397;53.576;9.746;2023-07-08T02:26:51;5.93;;;5.40;;
4766;SDS011;2397;53.576;9.746;2023-07-08T02:29:18;8.50;;;5.83;;
4766;SDS011;2397;53.576;9.746;2023-07-08T02:31:45;6.27;;;5.67;;
4766;SDS011;2397;53.576;9.746;2023-07-08T02:34:13;5.83;;;5.43;;
4766;SDS011;2397;53.576;9.746;2023-07-08T02:36:40;10.13;;;5.73;;
4766;SDS011;2397;53.576;9.746;2023-07-08T02:39:06;6.73;;;5.37;;
4766;SDS011;2397;53.576;9.746;2023-07-08T02:41:33;6.90;;;6.00;;
4766;SDS011;2397;53.576;9.746;2023-07-08T02:43:59;6.73;;;5.80;;
4766;SDS011;2397;53.576;9.746;2023-07-08T02:46:26;6.50;;;5.63;;
4766;SDS011;2397;53.576;9.746;2023-07-08T02:48:53;7.73;;;6.30;;
4766;SDS011;2397;53.576;9.746;2023-07-08T02:51:20;9.90;;;5.67;;
4766;SDS011;2397;53.576;9.746;2023-07-08T02:53:47;6.50;;;5.90;;
4766;SDS011;2397;53.576;9.746;2023-07-08T02:56:16;10.70;;;5.87;;
4766;SDS011;2397;53.576;9.746;2023-07-08T02:58:42;5.77;;;5.37;;
4766;SDS011;2397;53.576;9.746;2023-07-08T03:01:09;6.20;;;5.60;;
4766;SDS011;2397;53.576;9.746;2023-07-08T03:03:35;5.60;;;5.20;;
4766;SDS011;2397;53.576;9.746;2023-07-08T03:06:03;6.70;;;5.50;;
4766;SDS011;2397;53.576;9.746;2023-07-08T03:08:33;6.37;;;5.87;;
4766;SDS011;2397;53.576;9.746;2023-07-08T03:11:01;5.53;;;5.10;;
4766;SDS011;2397;53.576;9.746;2023-07-08T03:13:30;7.53;;;5.90;;
4766;SDS011;2397;53.576;9.746;2023-07-08T03:15:58;9.30;;;6.33;;
4766;SDS011;2397;53.576;9.746;2023-07-08T03:18:29;5.97;;;5.47;;
4766;SDS011;2397;53.576;9.746;2023-07-08T03:20:56;7.70;;;5.70;;
4766;SDS011;2397;53.576;9.746;2023-07-08T03:23:25;6.23;;;5.63;;
4766;SDS011;2397;53.576;9.746;2023-07-08T03:25:52;5.90;;;5.40;;
4766;SDS011;2397;53.576;9.746;2023-07-08T03:28:21;6.17;;;5.67;;
4766;SDS011;2397;53.576;9.746;2023-07-08T03:30:51;6.40;;;5.17;;
4766;SDS011;2397;53.576;9.746;2023-07-08T03:33:19;5.53;;;5.00;;
4766;SDS011;2397;53.576;9.746;2023-07-08T03:35:46;5.83;;;5.00;;
4766;SDS011;2397;53.576;9.746;2023-07-08T03:38:14;6.17;;;5.67;;
4766;SDS011;2397;53.576;9.746;2023-07-08T03:40:41;8.00;;;5.77;;
4766;SDS011;2397;53.576;9.746;2023-07-08T03:43:08;6.00;;;5.40;;
4766;SDS011;2397;53.576;9.746;2023-07-08T03:45:35;6.20;;;5.40;;
4766;SDS011;2397;53.576;9.746;2023-07-08T03:48:02;7.60;;;5.80;;
4766;SDS011;2397;53.576;9.746;2023-07-08T03:50:30;5.40;;;5.00;;
4766;SDS011;2397;53.576;9.746;2023-07-08T03:52:57;5.90;;;5.40;;
4766;SDS011;2397;53.576;9.746;2023-07-08T03:55:27;6.23;;;5.70;;
4766;SDS011;2397;53.576;9.746;2023-07-08T03:57:56;5.80;;;5.30;;
4766;SDS011;2397;53.576;9.746;2023-07-08T04:00:24;5.30;;;4.90;;
4766;SDS011;2397;53.576;9.746;2023-07-08T04:02:51;5.40;;;4.90;;
4766;SDS011;2397;53.576;9.746;2023-07-08T04:05:21;5.90;;;5.20;;
4766;SDS011;2397;53.576;9.746;2023-07-08T04:07:49;6.73;;;5.63;;
4766;SDS011;2397;53.576;9.746;2023-07-08T04:10:16;5.83;;;5.23;;
4766;SDS011;2397;53.576;9.746;2023-07-08T04:12:45;6.90;;;4.87;;
4766;SDS011;2397;53.576;9.746;2023-07-08T04:15:12;5.07;;;4.67;;
4766;SDS011;2397;53.576;9.746;2023-07-08T04:17:46;5.43;;;4.80;;
4766;SDS011;2397;53.576;9.746;2023-07-08T04:20:15;5.23;;;4.83;;
4766;SDS011;2397;53.576;9.746;2023-07-08T04:22:44;5.13;;;4.73;;
4766;SDS011;2397;53.576;9.746;2023-07-08T04:25:12;5.83;;;4.70;;
4766;SDS011;2397;53.576;9.746;2023-07-08T04:27:40;5.50;;;5.00;;
4766;SDS011;2397;53.576;9.746;2023-07-08T04:30:07;6.93;;;5.00;;
4766;SDS011;2397;53.576;9.746;2023-07-08T04:32:49;5.67;;;4.70;;
4766;SDS011;2397;53.576;9.746;2023-07-08T04:35:17;5.43;;;4.90;;
4766;SDS011;2397;53.576;9.746;2023-07-08T04:37:44;5.13;;;4.70;;
4766;SDS011;2397;53.576;9.746;2023-07-08T04:40:14;6.47;;;5.70;;
4766;SDS011;2397;53.576;9.746;2023-07-08T04:42:45;4.60;;;4.20;;
4766;SDS011;2397;53.576;9.746;2023-07-08T04:45:14;5.17;;;4.77;;
4766;SDS011;2397;53.576;9.746;2023-07-08T04:47:42;5.20;;;4.30;;
4766;SDS011;2397;53.576;9.746;2023-07-08T04:50:09;4.93;;;4.03;;
4766;SDS011;2397;53.576;9.746;2023-07-08T04:52:36;5.53;;;4.90;;
4766;SDS011;2397;53.576;9.746;2023-07-08T04:55:03;5.73;;;4.30;;
4766;SDS011;2397;53.576;9.746;2023-07-08T04:57:29;5.27;;;4.27;;
4766;SDS011;2397;53.576;9.746;2023-07-08T04:59:56;4.30;;;4.00;;
4766;SDS011;2397;53.576;9.746;2023-07-08T05:02:23;6.57;;;4.33;;
4766;SDS011;2397;53.576;9.746;2023-07-08T05:04:49;4.30;;;3.90;;
4766;SDS011;2397;53.576;9.746;2023-07-08T05:07:16;4.73;;;4.33;;
4766;SDS011;2397;53.576;9.746;2023-07-08T05:09:42;6.13;;;4.37;;
4766;SDS011;2397;53.576;9.746;2023-07-08T05:12:09;4.50;;;4.20;;
4766;SDS011;2397;53.576;9.746;2023-07-08T05:14:36;4.90;;;4.10;;
4766;SDS011;2397;53.576;9.746;2023-07-08T05:17:02;5.27;;;4.77;;
4766;SDS011;2397;53.576;9.746;2023-07-08T05:19:29;3.77;;;3.57;;
4766;SDS011;2397;53.576;9.746;2023-07-08T05:21:56;7.00;;;4.17;;
4766;SDS011;2397;53.576;9.746;2023-07-08T05:24:22;6.10;;;4.00;;
4766;SDS011;2397;53.576;9.746;2023-07-08T05:26:49;5.47;;;4.23;;
4766;SDS011;2397;53.576;9.746;2023-07-08T05:29:15;4.80;;;4.37;;
4766;SDS011;2397;53.576;9.746;2023-07-08T05:31:42;4.37;;;4.03;;
4766;SDS011;2397;53.576;9.746;2023-07-08T05:34:14;6.73;;;4.00;;
4766;SDS011;2397;53.576;9.746;2023-07-08T05:36:40;4.17;;;3.67;;
4766;SDS011;2397;53.576;9.746;2023-07-08T05:39:07;5.03;;;4.50;;
4766;SDS011;2397;53.576;9.746;2023-07-08T05:41:34;4.63;;;3.80;;
4766;SDS011;2397;53.576;9.746;2023-07-08T05:44:00;3.87;;;3.50;;
4766;SDS011;2397;53.576;9.746;2023-07-08T05:46:27;5.23;;;3.73;;
4766;SDS011;2397;53.576;9.746;2023-07-08T05:48:54;3.67;;;3.37;;
4766;SDS011;2397;53.576;9.746;2023-07-08T05:51:20;4.73;;;4.33;;
4766;SDS011;2397;53.576;9.746;2023-07-08T05:53:47;13.30;;;4.37;;
4766;SDS011;2397;53.576;9.746;2023-07-08T05:56:14;4.30;;;3.93;;
4766;SDS011;2397;53.576;9.746;2023-07-08T05:58:40;4.73;;;4.00;;
4766;SDS011;2397;53.576;9.746;2023-07-08T06:01:07;4.77;;;3.60;;
4766;SDS011;2397;53.576;9.746;2023-07-08T06:03:33;5.20;;;3.40;;
4766;SDS011;2397;53.576;9.746;2023-07-08T06:06:00;3.90;;;3.60;;
4766;SDS011;2397;53.576;9.746;2023-07-08T06:08:28;4.90;;;3.70;;
4766;SDS011;2397;53.576;9.746;2023-07-08T06:10:55;3.83;;;3.53;;
4766;SDS011;2397;53.576;9.746;2023-07-08T06:13:21;3.67;;;3.37;;
4766;SDS011;2397;53.576;9.746;2023-07-08T06:15:48;4.40;;;3.90;;
4766;SDS011;2397;53.576;9.746;2023-07-08T06:18:14;4.40;;;4.10;;
4766;SDS011;2397;53.576;9.746;2023-07-08T06:20:41;7.27;;;3.60;;
4766;SDS011;2397;53.576;9.746;2023-07-08T06:23:07;5.10;;;3.60;;
4766;SDS011;2397;53.576;9.746;2023-07-08T06:25:34;3.80;;;3.50;;
4766;SDS011;2397;53.576;9.746;2023-07-08T06:28:01;3.87;;;3.57;;
4766;SDS011;2397;53.576;9.746;2023-07-08T06:30:27;4.60;;;3.83;;
4766;SDS011;2397;53.576;9.746;2023-07-08T06:32:54;4.03;;;3.03;;
4766;SDS011;2397;53.576;9.746;2023-07-08T06:35:21;6.10;;;4.17;;
4766;SDS011;2397;53.576;9.746;2023-07-08T06:37:48;5.20;;;3.70;;
4766;SDS011;2397;53.576;9.746;2023-07-08T06:40:15;3.73;;;3.47;;
4766;SDS011;2397;53.576;9.746;2023-07-08T06:42:43;3.50;;;3.30;;
4766;SDS011;2397;53.576;9.746;2023-07-08T06:45:23;4.10;;;3.50;;
4766;SDS011;2397;53.576;9.746;2023-07-08T06:47:50;5.43;;;4.07;;
4766;SDS011;2397;53.576;9.746;2023-07-08T06:50:17;3.20;;;2.90;;
4766;SDS011;2397;53.576;9.746;2023-07-08T06:52:43;8.90;;;4.30;;
4766;SDS011;2397;53.576;9.746;2023-07-08T06:55:10;4.23;;;3.23;;
4766;SDS011;2397;53.576;9.746;2023-07-08T06:57:38;5.27;;;3.70;;
4766;SDS011;2397;53.576;9.746;2023-07-08T07:00:07;3.53;;;3.23;;
4766;SDS011;2397;53.576;9.746;2023-07-08T07:02:36;3.60;;;3.13;;
4766;SDS011;2397;53.576;9.746;2023-07-08T07:05:03;3.90;;;3.33;;
4766;SDS011;2397;53.576;9.746;2023-07-08T07:07:30;6.00;;;3.53;;
4766;SDS011;2397;53.576;9.746;2023-07-08T07:09:57;4.80;;;3.70;;
4766;SDS011;2397;53.576;9.746;2023-07-08T07:12:24;4.20;;;3.37;;
4766;SDS011;2397;53.576;9.746;2023-07-08T07:14:51;3.87;;;3.27;;
4766;SDS011;2397;53.576;9.746;2023-07-08T07:17:20;3.30;;;2.93;;
4766;SDS011;2397;53.576;9.746;2023-07-08T07:19:48;3.80;;;3.40;;
4766;SDS011;2397;53.576;9.746;2023-07-08T07:22:15;9.60;;;3.47;;
4766;SDS011;2397;53.576;9.746;2023-07-08T07:24:42;3.37;;;3.07;;
4766;SDS011;2397;53.576;9.746;2023-07-08T07:27:09;3.53;;;3.23;;
4766;SDS011;2397;53.576;9.746;2023-07-08T07:29:44;3.40;;;3.10;;
4766;SDS011;2397;53.576;9.746;2023-07-08T07:32:12;4.53;;;2.93;;
4766;SDS011;2397;53.576;9.746;2023-07-08T07:34:40;3.63;;;3.17;;
4766;SDS011;2397;53.576;9.746;2023-07-08T07:37:09;3.87;;;3.07;;
4766;SDS011;2397;53.576;9.746;2023-07-08T07:39:38;3.70;;;3.07;;
4766;SDS011;2397;53.576;9.746;2023-07-08T07:42:05;4.07;;;3.60;;
4766;SDS011;2397;53.576;9.746;2023-07-08T07:44:33;4.57;;;3.00;;
4766;SDS011;2397;53.576;9.746;2023-07-08T07:46:59;4.70;;;2.90;;
4766;SDS011;2397;53.576;9.746;2023-07-08T07:49:26;3.40;;;3.20;;
4766;SDS011;2397;53.576;9.746;2023-07-08T07:51:52;4.60;;;3.40;;
4766;SDS011;2397;53.576;9.746;2023-07-08T07:54:19;3.70;;;3.40;;
4766;SDS011;2397;53.576;9.746;2023-07-08T07:56:45;5.00;;;3.47;;
4766;SDS011;2397;53.576;9.746;2023-07-08T07:59:12;5.13;;;3.40;;
4766;SDS011;2397;53.576;9.746;2023-07-08T08:01:39;4.20;;;3.50;;
4766;SDS011;2397;53.576;9.746;2023-07-08T08:04:07;3.60;;;3.30;;
4766;SDS011;2397;53.576;9.746;2023-07-08T08:06:35;6.57;;;3.47;;
4766;SDS011;2397;53.576;9.746;2023-07-08T08:09:03;3.10;;;2.80;;
4766;SDS011;2397;53.576;9.746;2023-07-08T08:11:30;4.53;;;3.60;;
4766;SDS011;2397;53.576;9.746;2023-07-08T08:13:56;3.50;;;3.20;;
4766;SDS011;2397;53.576;9.746;2023-07-08T08:16:23;3.50;;;3.20;;
4766;SDS011;2397;53.576;9.746;2023-07-08T08:18:50;3.97;;;3.57;;
4766;SDS011;2397;53.576;9.746;2023-07-08T08:21:16;4.10;;;3.57;;
4766;SDS011;2397;53.576;9.746;2023-07-08T08:23:43;3.43;;;3.10;;
4766;SDS011;2397;53.576;9.746;2023-07-08T08:26:09;4.03;;;3.07;;
4766;SDS011;2397;53.576;9.746;2023-07-08T08:28:36;4.97;;;3.93;;
4766;SDS011;2397;53.576;9.746;2023-07-08T08:31:02;4.27;;;3.43;;
4766;SDS011;2397;53.576;9.746;2023-07-08T08:33:29;3.60;;;3.17;;
4766;SDS011;2397;53.576;9.746;2023-07-08T08:35:55;3.70;;;3.40;;
4766;SDS011;2397;53.576;9.746;2023-07-08T08:38:22;2.90;;;2.70;;
4766;SDS011;2397;53.576;9.746;2023-07-08T08:40:49;3.53;;;3.23;;
4766;SDS011;2397;53.576;9.746;2023-07-08T08:43:17;3.57;;;3.27;;
4766;SDS011;2397;53.576;9.746;2023-07-08T08:45:55;3.03;;;2.70;;
4766;SDS011;2397;53.576;9.746;2023-07-08T08:48:30;6.20;;;3.10;;
4766;SDS011;2397;53.576;9.746;2023-07-08T08:51:06;4.27;;;3.60;;
4766;SDS011;2397;53.576;9.746;2023-07-08T08:53:38;3.73;;;3.43;;
4766;SDS011;2397;53.576;9.746;2023-07-08T08:56:16;3.90;;;3.60;;
4766;SDS011;2397;53.576;9.746;2023-07-08T08:58:54;4.73;;;3.30;;
4766;SDS011;2397;53.576;9.746;2023-07-08T09:01:35;3.47;;;3.17;;
4766;SDS011;2397;53.576;9.746;2023-07-08T09:04:05;7.10;;;3.10;;
4766;SDS011;2397;53.576;9.746;2023-07-08T09:06:35;4.43;;;3.00;;
4766;SDS011;2397;53.576;9.746;2023-07-08T09:09:05;4.63;;;3.47;;
4766;SDS011;2397;53.576;9.746;2023-07-08T09:14:44;3.30;;;3.10;;
4766;SDS011;2397;53.576;9.746;2023-07-08T09:17:28;4.57;;;3.23;;
4766;SDS011;2397;53.576;9.746;2023-07-08T09:25:39;3.60;;;3.30;;
4766;SDS011;2397;53.576;9.746;2023-07-08T09:28:13;3.87;;;3.57;;
4766;SDS011;2397;53.576;9.746;2023-07-08T09:30:42;3.23;;;3.03;;
4766;SDS011;2397;53.576;9.746;2023-07-08T09:33:14;3.87;;;3.63;;
4766;SDS011;2397;53.576;9.746;2023-07-08T09:35:42;4.37;;;3.30;;
4766;SDS011;2397;53.576;9.746;2023-07-08T09:38:15;3.50;;;3.20;;
4766;SDS011;2397;53.576;9.746;2023-07-08T09:40:46;4.37;;;4.00;;
4766;SDS011;2397;53.576;9.746;2023-07-08T09:45:48;3.57;;;3.20;;
4766;SDS011;2397;53.576;9.746;2023-07-08T09:48:24;3.23;;;2.97;;
4766;SDS011;2397;53.576;9.746;2023-07-08T09:50:53;3.60;;;3.30;;
4766;SDS011;2397;53.576;9.746;2023-07-08T09:53:20;3.70;;;3.30;;
4766;SDS011;2397;53.576;9.746;2023-07-08T09:55:47;5.07;;;3.60;;
4766;SDS011;2397;53.576;9.746;2023-07-08T09:58:30;4.83;;;3.67;;
4766;SDS011;2397;53.576;9.746;2023-07-08T10:00:59;6.20;;;3.73;;
4766;SDS011;2397;53.576;9.746;2023-07-08T10:03:30;3.80;;;3.50;;
4766;SDS011;2397;53.576;9.746;2023-07-08T10:06:02;4.47;;;3.07;;
4766;SDS011;2397;53.576;9.746;2023-07-08T10:08:39;4.20;;;3.10;;
4766;SDS011;2397;53.576;9.746;2023-07-08T10:11:12;3.53;;;3.23;;
4766;SDS011;2397;53.576;9.746;2023-07-08T10:13:48;5.03;;;3.30;;
4766;SDS011;2397;53.576;9.746;2023-07-08T10:16:36;4.17;;;3.57;;
4766;SDS011;2397;53.576;9.746;2023-07-08T10:19:15;4.03;;;3.37;;
4766;SDS011;2397;53.576;9.746;2023-07-08T10:21:51;3.53;;;3.20;;
4766;SDS011;2397;53.576;9.746;2023-07-08T10:30:14;5.30;;;3.57;;
4766;SDS011;2397;53.576;9.746;2023-07-08T10:44:50;3.53;;;3.23;;
4766;SDS011;2397;53.576;9.746;2023-07-08T10:56:24;3.70;;;3.40;;
4766;SDS011;2397;53.576;9.746;2023-07-08T11:06:44;3.80;;;3.20;;
4766;SDS011;2397;53.576;9.746;2023-07-08T11:09:21;3.70;;;3.17;;
4766;SDS011;2397;53.576;9.746;2023-07-08T11:11:53;4.33;;;3.77;;
4766;SDS011;2397;53.576;9.746;2023-07-08T11:14:27;3.93;;;3.63;;
4766;SDS011;2397;53.576;9.746;2023-07-08T11:20:10;6.83;;;3.83;;
4766;SDS011;2397;53.576;9.746;2023-07-08T11:22:50;4.70;;;3.93;;
4766;SDS011;2397;53.576;9.746;2023-07-08T11:25:23;4.50;;;3.70;;
4766;SDS011;2397;53.576;9.746;2023-07-08T11:27:54;3.10;;;2.90;;
4766;SDS011;2397;53.576;9.746;2023-07-08T11:30:24;3.20;;;3.00;;
4766;SDS011;2397;53.576;9.746;2023-07-08T11:33:05;3.67;;;3.37;;
4766;SDS011;2397;53.576;9.746;2023-07-08T11:38:12;5.70;;;3.63;;
4766;SDS011;2397;53.576;9.746;2023-07-08T11:40:58;8.23;;;3.63;;
4766;SDS011;2397;53.576;9.746;2023-07-08T11:43:33;3.70;;;3.40;;
4766;SDS011;2397;53.576;9.746;2023-07-08T11:46:05;3.63;;;3.30;;
4766;SDS011;2397;53.576;9.746;2023-07-08T11:48:38;3.70;;;3.40;;
4766;SDS011;2397;53.576;9.746;2023-07-08T11:51:10;5.83;;;3.30;;
4766;SDS011;2397;53.576;9.746;2023-07-08T11:53:48;3.50;;;3.30;;
4766;SDS011;2397;53.576;9.746;2023-07-08T12:01:26;3.93;;;3.43;;
4766;SDS011;2397;53.576;9.746;2023-07-08T12:03:59;3.33;;;3.03;;
4766;SDS011;2397;53.576;9.746;2023-07-08T12:06:42;9.00;;;3.90;;
4766;SDS011;2397;53.576;9.746;2023-07-08T12:09:13;3.50;;;3.20;;
4766;SDS011;2397;53.576;9.746;2023-07-08T12:11:45;3.60;;;3.30;;
4766;SDS011;2397;53.576;9.746;2023-07-08T12:14:14;3.93;;;3.53;;
4766;SDS011;2397;53.576;9.746;2023-07-08T12:16:41;3.90;;;3.70;;
4766;SDS011;2397;53.576;9.746;2023-07-08T12:19:10;4.50;;;3.43;;
4766;SDS011;2397;53.576;9.746;2023-07-08T12:21:42;3.83;;;3.50;;
4766;SDS011;2397;53.576;9.746;2023-07-08T12:24:12;3.77;;;3.47;;
4766;SDS011;2397;53.576;9.746;2023-07-08T12:26:41;3.70;;;3.40;;
4766;SDS011;2397;53.576;9.746;2023-07-08T12:29:11;3.90;;;3.60;;
4766;SDS011;2397;53.576;9.746;2023-07-08T12:31:41;3.60;;;3.27;;
4766;SDS011;2397;53.576;9.746;2023-07-08T12:34:10;7.83;;;3.77;;
4766;SDS011;2397;53.576;9.746;2023-07-08T12:36:40;5.53;;;3.30;;
4766;SDS011;2397;53.576;9.746;2023-07-08T12:39:09;4.70;;;3.53;;
4766;SDS011;2397;53.576;9.746;2023-07-08T12:41:41;8.07;;;3.43;;
4766;SDS011;2397;53.576;9.746;2023-07-08T12:44:14;3.87;;;3.57;;
4766;SDS011;2397;53.576;9.746;2023-07-08T12:46:46;3.60;;;3.30;;
4766;SDS011;2397;53.576;9.746;2023-07-08T12:49:17;3.60;;;3.30;;
4766;SDS011;2397;53.576;9.746;2023-07-08T12:51:45;3.50;;;3.20;;
4766;SDS011;2397;53.576;9.746;2023-07-08T12:54:13;3.70;;;3.40;;
4766;SDS011;2397;53.576;9.746;2023-07-08T12:56:42;3.83;;;3.50;;
4766;SDS011;2397;53.576;9.746;2023-07-08T12:59:17;7.00;;;3.00;;
4766;SDS011;2397;53.576;9.746;2023-07-08T13:01:45;3.70;;;3.40;;
4766;SDS011;2397;53.576;9.746;2023-07-08T13:04:13;3.70;;;3.40;;
4766;SDS011;2397;53.576;9.746;2023-07-08T13:06:40;4.10;;;3.80;;
4766;SDS011;2397;53.576;9.746;2023-07-08T13:11:53;7.67;;;3.87;;
4766;SDS011;2397;53.576;9.746;2023-07-08T13:14:22;3.40;;;3.20;;
4766;SDS011;2397;53.576;9.746;2023-07-08T13:16:50;3.87;;;3.57;;
4766;SDS011;2397;53.576;9.746;2023-07-08T13:19:18;3.90;;;3.60;;
4766;SDS011;2397;53.576;9.746;2023-07-08T13:21:48;4.20;;;3.90;;
4766;SDS011;2397;53.576;9.746;2023-07-08T13:24:16;4.80;;;3.83;;
4766;SDS011;2397;53.576;9.746;2023-07-08T13:26:46;4.22;;;3.92;;
4766;SDS011;2397;53.576;9.746;2023-07-08T13:29:16;5.68;;;3.95;;
4766;SDS011;2397;53.576;9.746;2023-07-08T13:31:48;3.53;;;3.22;;
4766;SDS011;2397;53.576;9.746;2023-07-08T13:34:19;4.20;;;3.78;;
4766;SDS011;2397;53.576;9.746;2023-07-08T13:36:50;4.07;;;3.60;;
4766;SDS011;2397;53.576;9.746;2023-07-08T14:15:35;4.55;;;4.15;;
4766;SDS011;2397;53.576;9.746;2023-07-08T14:18:03;5.15;;;4.70;;
4766;SDS011;2397;53.576;9.746;2023-07-08T14:20:29;20.50;;;7.05;;
4766;SDS011;2397;53.576;9.746;2023-07-08T14:22:56;6.15;;;4.93;;
4766;SDS011;2397;53.576;9.746;2023-07-08T14:25:23;5.82;;;3.97;;
4766;SDS011;2397;53.576;9.746;2023-07-08T14:27:50;4.65;;;4.07;;
4766;SDS011;2397;53.576;9.746;2023-07-08T14:30:17;6.28;;;4.10;;
4766;SDS011;2397;53.576;9.746;2023-07-08T14:32:44;7.35;;;4.10;;
4766;SDS011;2397;53.576;9.746;2023-07-08T14:35:14;6.00;;;3.80;;
4766;SDS011;2397;53.576;9.746;2023-07-08T14:37:43;4.47;;;4.07;;
4766;SDS011;2397;53.576;9.746;2023-07-08T14:40:18;4.28;;;3.97;;
4766;SDS011;2397;53.576;9.746;2023-07-08T14:42:47;4.07;;;3.78;;
4766;SDS011;2397;53.576;9.746;2023-07-08T14:45:16;4.88;;;3.97;;
4766;SDS011;2397;53.576;9.746;2023-07-08T14:47:43;6.18;;;4.70;;
4766;SDS011;2397;53.576;9.746;2023-07-08T14:50:11;8.13;;;4.93;;
4766;SDS011;2397;53.576;9.746;2023-07-08T14:52:39;4.20;;;3.88;;
4766;SDS011;2397;53.576;9.746;2023-07-08T14:55:07;4.25;;;3.85;;
4766;SDS011;2397;53.576;9.746;2023-07-08T14:57:40;5.05;;;4.60;;
4766;SDS011;2397;53.576;9.746;2023-07-08T15:00:12;4.63;;;4.22;;
4766;SDS011;2397;53.576;9.746;2023-07-08T15:02:41;6.97;;;4.30;;
4766;SDS011;2397;53.576;9.746;2023-07-08T15:05:17;4.47;;;4.18;;
4766;SDS011;2397;53.576;9.746;2023-07-08T15:07:47;4.43;;;4.03;;
4766;SDS011;2397;53.576;9.746;2023-07-08T15:10:15;4.65;;;4.25;;
4766;SDS011;2397;53.576;9.746;2023-07-08T15:12:41;4.80;;;4.30;;
4766;SDS011;2397;53.576;9.746;2023-07-08T15:15:15;4.53;;;4.22;;
4766;SDS011;2397;53.576;9.746;2023-07-08T15:17:44;4.30;;;4.00;;
4766;SDS011;2397;53.576;9.746;2023-07-08T15:20:15;4.20;;;3.70;;
4766;SDS011;2397;53.576;9.746;2023-07-08T15:22:42;4.38;;;4.07;;
4766;SDS011;2397;53.576;9.746;2023-07-08T15:25:13;6.75;;;5.05;;
4766;SDS011;2397;53.576;9.746;2023-07-08T15:27:41;4.63;;;3.97;;
4766;SDS011;2397;53.576;9.746;2023-07-08T15:30:18;4.57;;;4.28;;
4766;SDS011;2397;53.576;9.746;2023-07-08T15:32:49;6.50;;;4.28;;
4766;SDS011;2397;53.576;9.746;2023-07-08T15:35:17;5.55;;;4.57;;
4766;SDS011;2397;53.576;9.746;2023-07-08T15:37:45;4.40;;;4.10;;
4766;SDS011;2397;53.576;9.746;2023-07-08T15:40:16;4.68;;;4.32;;
4766;SDS011;2397;53.576;9.746;2023-07-08T15:42:45;4.68;;;4.28;;
4766;SDS011;2397;53.576;9.746;2023-07-08T15:45:22;5.13;;;4.28;;
4766;SDS011;2397;53.576;9.746;2023-07-08T15:47:50;4.60;;;4.10;;
4766;SDS011;2397;53.576;9.746;2023-07-08T15:50:19;4.95;;;4.50;;
4766;SDS011;2397;53.576;9.746;2023-07-08T15:52:47;3.83;;;3.63;;
4766;SDS011;2397;53.576;9.746;2023-07-08T15:55:23;4.57;;;4.10;;
4766;SDS011;2397;53.576;9.746;2023-07-08T15:58:03;6.00;;;4.55;;
4766;SDS011;2397;53.576;9.746;2023-07-08T16:00:34;8.80;;;4.20;;
4766;SDS011;2397;53.576;9.746;2023-07-08T16:03:05;4.07;;;3.78;;
4766;SDS011;2397;53.576;9.746;2023-07-08T16:05:35;4.32;;;4.03;;
4766;SDS011;2397;53.576;9.746;2023-07-08T16:08:02;5.75;;;4.57;;
4766;SDS011;2397;53.576;9.746;2023-07-08T16:10:32;5.75;;;4.10;;
4766;SDS011;2397;53.576;9.746;2023-07-08T16:12:58;4.85;;;4.45;;
4766;SDS011;2397;53.576;9.746;2023-07-08T16:15:29;10.55;;;4.40;;
4766;SDS011;2397;53.576;9.746;2023-07-08T16:17:58;3.92;;;3.63;;
4766;SDS011;2397;53.576;9.746;2023-07-08T16:20:26;4.57;;;4.28;;
4766;SDS011;2397;53.576;9.746;2023-07-08T16:22:54;4.28;;;3.85;;
4766;SDS011;2397;53.576;9.746;2023-07-08T16:25:29;4.10;;;3.78;;
4766;SDS011;2397;53.576;9.746;2023-07-08T16:28:03;5.03;;;4.53;;
4766;SDS011;2397;53.576;9.746;2023-07-08T16:30:31;5.47;;;3.95;;
4766;SDS011;2397;53.576;9.746;2023-07-08T16:32:58;4.50;;;4.10;;
4766;SDS011;2397;53.576;9.746;2023-07-08T16:35:25;4.32;;;3.88;;
4766;SDS011;2397;53.576;9.746;2023-07-08T16:37:52;3.75;;;3.50;;
4766;SDS011;2397;53.576;9.746;2023-07-08T16:40:21;4.22;;;3.83;;
4766;SDS011;2397;53.576;9.746;2023-07-08T16:42:50;3.92;;;3.60;;
4766;SDS011;2397;53.576;9.746;2023-07-08T16:45:19;5.38;;;4.05;;
4766;SDS011;2397;53.576;9.746;2023-07-08T16:47:47;3.55;;;3.30;;
4766;SDS011;2397;53.576;9.746;2023-07-08T16:50:15;4.35;;;3.55;;
4766;SDS011;2397;53.576;9.746;2023-07-08T16:52:43;5.22;;;3.67;;
4766;SDS011;2397;53.576;9.746;2023-07-08T16:55:14;4.93;;;3.72;;
4766;SDS011;2397;53.576;9.746;2023-07-08T16:57:42;4.50;;;4.10;;
4766;SDS011;2397;53.576;9.746;2023-07-08T17:00:13;4.28;;;3.95;;
4766;SDS011;2397;53.576;9.746;2023-07-08T17:02:43;4.25;;;3.85;;
4766;SDS011;2397;53.576;9.746;2023-07-08T17:05:18;3.70;;;3.47;;
4766;SDS011;2397;53.576;9.746;2023-07-08T17:07:47;3.85;;;3.40;;
4766;SDS011;2397;53.576;9.746;2023-07-08T17:10:15;4.07;;;3.67;;
4766;SDS011;2397;53.576;9.746;2023-07-08T17:12:42;4.57;;;3.38;;
4766;SDS011;2397;53.576;9.746;2023-07-08T17:15:09;5.18;;;4.18;;